METAR / TAF

Die METAR- und TAF-Liste ist aus technischen Gründen (Verfügbarkeit, Update-Zyklen) nicht für ein Meteo-Briefing gedacht. Benutzen Sie stattdessen skybriefing der Skyguide  oder das TAMSI (MeteoSchweiz-eigene Meteo Selfbriefing-Plattform für Firmen aus der Aviatik; Anfragen über das

Kontaktformular

METAR Schweiz

METAR     LSZH 280050Z 17002KT 2000 R14/0800D R16/P2000N R28/P2000N
               R34/P2000N BCFG SCT001 08/08 Q1029 TEMPO 0400=
METAR     LSZH 280120Z 31002KT 6000 R14/0650N R16/P2000N R28/P2000N
               R34/P2000N BCFG FEW002 08/08 Q1030 TEMPO 0400=
METAR     LSGG 280050Z AUTO VRB01KT 9999 NCD 11/10 Q1030 NOSIG=
METAR     LSGG 280120Z AUTO VRB01KT 9999 NCD 11/11 Q1030 NOSIG=
METAR     LFSB 280100Z AUTO 17002KT 4800 0800 R15/P2000 R33/1500U
               BCFG SCT012 SCT017 10/09 Q1029 TEMPO 1500=
METAR     LSZB 280050Z AUTO VRB01KT 5000 NCD 09/08 Q1030=
METAR     LSZB 280120Z AUTO 12001KT 6000 NCD 08/08 Q1030=
METAR     LSZA 280050Z AUTO VRB01KT 2700 BR NCD 13/13 Q1029=
METAR     LSZA 280120Z AUTO VRB01KT 0350 FG NCD 13/13 Q1029=
METAR     LSZG 280050Z AUTO 00000KT 0100 -SHRA BCFG VV001 09/09
               Q1030=
METAR     LSZG 280120Z AUTO 00000KT 0250 FG VV001 09/09 Q1030=
METAR     LSZR 280050Z AUTO 22002KT 9000 SCT010 10/10 Q1029=
METAR     LSZR 280120Z AUTO 12002KT 7000 NCD 10/10 Q1029=
METAR     LSGS 280050Z NIL=
METAR     LSGS 280120Z NIL=
METAR     LSGC 280050Z AUTO 00000KT 2400 BR NCD 06/05 Q1031=
METAR     LSGC 280120Z AUTO VRB01KT 0200 FG NCD 04/04 Q1031=
METAR     LSZC 280050Z AUTO 29002KT 9999 NCD 11/11 Q1030=
METAR     LSZC 280120Z AUTO 26003KT 9999 NCD 11/11 Q1030=
METAR     LSZL 280050Z AUTO 00000KT 4000NDV BR SCT048 12/12 Q1029
               RMK=
METAR     LSZL 280120Z NIL=
METAR     LSZS 280050Z AUTO 19002KT 9999 BKN004 01/01 Q1033=
METAR     LSZS 280120Z AUTO 19001KT 9999 SCT003 01/01 Q1033=
METAR     LSMA 280050Z AUTO VRB02KT 7000NDV BR NCD 10/10 Q1030 RMK=
METAR     LSMA NIL=
METAR     LSMD 280050Z AUTO VRB01KT 7000NDV NCD 10/10 Q1030 RMK=
METAR     LSMD NIL=
METAR     LSME 280050Z AUTO 00000KT 4400NDV BR NCD 11/10 Q1030 RMK=
METAR     LSME NIL=
METAR     LSMM 280050Z AUTO 00000KT 9000NDV NCD 09/09 Q1030 RMK=
METAR     LSMM NIL=
METAR     LSMP 280050Z AUTO 00000KT 5000NDV NCD 10/09 Q1030 RMK=
METAR     LSMP NIL=
METAR     LSMS 280050Z AUTO 00000KT ////NDV ////// 11/09 Q1031 RMK
               MIS=
METAR     LSMS NIL=
Aktualisiert am Mittwoch, 28. September 2016, 03:34 Uhr

TAF Schweiz

TAF     LSZH 272325Z 2800/2906 VRB03KT 4500 MIFG NSC TX21/2814Z
             TN09/2806Z TN10/2906Z BECMG 2800/2802 0400 FG VV001
             BECMG 2807/2808 3000 BR BKN005 BECMG 2808/2810 7000
             SCT010 BECMG 2810/2812 CAVOK PROB40 TEMPO 2813/2818
             9999 FEW030 BECMG 2821/2823 4500 MIFG NSC TEMPO
             2823/2906 0400 FG VV001=
TAF     LSGG 272325Z 2800/2906 VRB03KT CAVOK TX21/2815Z TN09/2805Z
             TN09/2905Z PROB30 BECMG 2802/2804 5000 MIFG BR NSC
             PROB30 TEMPO 2803/2806 2000 BR BECMG 2806/2808 CAVOK
             BECMG 2822/2824 5000 MIFG BR PROB30 TEMPO 2902/2906
             2000 MIFG BR=
TAF     LFSB 272300Z 2800/2824 VRB03KT 4000 BR NSC TEMPO 2800/2807
             1500 BECMG 2807/2809 CAVOK=
TAF RRA LSZL 271725Z 2718/2803 VRB03KT 9999 FEW040=
TAF     LSMA 271625Z 2717/2823 07006KT 9999 FEW040 BECMG 2717/2720
             CAVOK BECMG 2720/2724 4000 MIFG BECMG 2724/2804 0400
             FG VV001 BECMG 2806/2809 3000 BR BKN005 BECMG
             2809/2811 5000 SCT010 BECMG 2811/2813 CAVOK PROB40
             2814/2817 9999 FEW030 BECMG 2720/2723 4000 BR=
TAF     LSMD 271625Z 2717/2823 VRB03KT 9999 FEW040 BECMG 2717/2720
             CAVOK BECMG 2720/2724 4000 MIFG BECMG 2724/2804 0400
             FG VV001 BECMG 2806/2809 3000 BR BKN005 BECMG
             2809/2811 5000 SCT010 BECMG 2811/2813 CAVOK PROB40
             2814/2817 9999 FEW040 BECMG 2720/2723 4000 BR=
TAF     LSME 271625Z 2717/2823 VRB02KT 9999 FEW040 BECMG 2717/2720
             CAVOK BECMG 2720/2724 4000 MIFG BECMG 2724/2804 0400
             FG VV001 BECMG 2806/2809 3000 BR BKN005 BECMG
             2809/2811 5000 SCT010 BECMG 2811/2813 CAVOK PROB40
             2814/2817 9999 FEW030 BECMG 2720/2723 4000 BR=
TAF     LSMM 271625Z 2717/2823 VRB03KT 9999 FEW050 BECMG 2717/2721
             CAVOK BECMG 2721/2723 4000 BR PROB30 2723/2809 0800
             FG VV003 BECMG 2807/2809 5000 BECMG 2809/2811 CAVOK
             BECMG 2812/2816 9999 FEW040 BECMG 2721/2723 4000 BR=
TAF     LSMP 271625Z 2717/2823 VRB03KT CAVOK BECMG 2720/2722 3000
             MIFG BR NSC BECMG 2722/2724 1500 BCFG SCT005 PROB40
             2800/2806 0500 FG VV005 BECMG 2806/2808 3000 BR
             SCT010 BECMG 2808/2810 CAVOK BECMG 2820/2823 3000
             MIFG BR NSC=
Aktualisiert am Mittwoch, 28. September 2016, 03:03 Uhr